Time;durP1;ratioP1;P1;durP2;ratioP2;P2;SDS_P1;SDS_P2;PMS_P1;PMS_P2;Temp;Humidity;BMP_temperature;BMP_pressure;BME280_temperature;BME280_humidity;BME280_pressure;Samples;Min_cycle;Max_cycle;Signal;HPM_P1;HPM_P2
2021/12/09 00:01:23;;;;;;;41.50;26.90;;;;;;;2.14;91.89;100420.91;5013971;28;20453;-43
2021/12/09 00:03:53;;;;;;;44.73;28.07;;;;;;;2.13;91.99;100411.34;5013230;28;20517;-42
2021/12/09 00:06:25;;;;;;;42.33;28.83;;;;;;;2.08;92.09;100411.00;5014951;28;20792;-42
2021/12/09 00:08:56;;;;;;;45.33;30.00;;;;;;;2.02;91.92;100408.97;5014769;28;20445;-42
2021/12/09 00:11:24;;;;;;;46.13;28.70;;;;;;;2.05;91.99;100411.28;5015201;28;20472;-43
2021/12/09 00:13:52;;;;;;;43.13;27.67;;;;;;;2.05;91.72;100416.56;5014307;28;20429;-42
2021/12/09 00:16:20;;;;;;;49.83;29.87;;;;;;;2.06;91.93;100418.22;5014422;28;20967;-42
2021/12/09 00:18:47;;;;;;;48.47;30.30;;;;;;;2.03;91.71;100415.88;5014888;28;20436;-42
2021/12/09 00:21:15;;;;;;;49.40;28.90;;;;;;;2.05;91.84;100412.13;5014871;28;20454;-42
2021/12/09 00:23:43;;;;;;;41.27;26.67;;;;;;;2.00;91.71;100413.56;5013982;28;20433;-43
2021/12/09 00:26:12;;;;;;;51.80;31.07;;;;;;;2.02;91.55;100419.47;5015007;28;20429;-44
2021/12/09 00:28:39;;;;;;;41.13;28.90;;;;;;;2.02;91.71;100422.09;5014300;28;20433;-43
2021/12/09 00:31:09;;;;;;;47.90;29.13;;;;;;;1.96;91.92;100414.81;5013382;28;20469;-42
2021/12/09 00:33:42;;;;;;;48.10;28.47;;;;;;;2.00;91.75;100419.59;5013618;28;20477;-44
2021/12/09 00:36:12;;;;;;;50.50;31.23;;;;;;;1.99;91.64;100425.03;5014243;28;20434;-44
2021/12/09 00:38:41;;;;;;;48.60;29.30;;;;;;;1.93;91.88;100418.56;5014087;28;20835;-42
2021/12/09 00:41:12;;;;;;;51.87;27.97;;;;;;;1.93;91.97;100431.72;5013738;28;20484;-45
2021/12/09 00:43:41;;;;;;;49.00;28.77;;;;;;;1.92;92.00;100437.94;5010075;28;21088;-43
2021/12/09 00:46:10;;;;;;;54.53;28.93;;;;;;;1.83;92.13;100441.47;5011737;28;20437;-43
2021/12/09 00:48:38;;;;;;;49.70;28.63;;;;;;;1.87;91.68;100447.25;5011284;28;20799;-42
2021/12/09 00:51:08;;;;;;;59.47;30.80;;;;;;;1.77;91.77;100443.84;5013362;28;20461;-43
2021/12/09 00:53:36;;;;;;;47.03;29.50;;;;;;;1.81;91.40;100437.34;5012942;28;20477;-43
2021/12/09 00:56:04;;;;;;;55.67;32.47;;;;;;;1.80;91.55;100440.94;5013417;28;20886;-43
2021/12/09 00:58:33;;;;;;;50.40;29.70;;;;;;;1.79;91.71;100439.28;5013650;28;20443;-43
2021/12/09 01:01:01;;;;;;;58.33;31.67;;;;;;;1.80;91.33;100438.28;5013419;28;20457;-45
2021/12/09 01:03:29;;;;;;;50.70;30.63;;;;;;;1.75;91.48;100437.91;5013546;28;20429;-45
2021/12/09 01:05:57;;;;;;;55.73;32.20;;;;;;;1.73;91.59;100439.88;5012815;28;20465;-43
2021/12/09 01:08:40;;;;;;;50.30;30.10;;;;;;;1.77;91.64;100449.09;5014347;28;20446;-44
2021/12/09 01:11:09;;;;;;;49.93;30.50;;;;;;;1.79;91.73;100436.66;5014008;28;20477;-43
2021/12/09 01:13:38;;;;;;;55.57;31.20;;;;;;;1.81;91.54;100435.53;5013266;28;20481;-42
2021/12/09 01:16:06;;;;;;;55.70;31.63;;;;;;;1.75;91.46;100441.38;5013744;28;20429;-43
2021/12/09 01:18:34;;;;;;;53.73;30.60;;;;;;;1.76;91.53;100432.53;5013875;28;20801;-42
2021/12/09 01:21:03;;;;;;;54.63;30.77;;;;;;;1.79;91.20;100432.25;5013839;28;20457;-43
2021/12/09 01:23:31;;;;;;;57.27;31.80;;;;;;;1.80;91.91;100433.88;5013507;28;20434;-42
2021/12/09 01:26:03;;;;;;;45.87;29.87;;;;;;;1.74;91.50;100429.19;5013540;28;20873;-42
2021/12/09 01:28:41;;;;;;;49.00;28.73;;;;;;;1.75;91.83;100425.59;5013631;28;20512;-42
2021/12/09 01:31:10;;;;;;;59.00;32.43;;;;;;;1.76;91.43;100422.03;5013275;28;20461;-43
2021/12/09 01:33:38;;;;;;;53.10;31.07;;;;;;;1.76;91.70;100429.91;5012652;28;20477;-42
2021/12/09 01:36:06;;;;;;;54.30;32.70;;;;;;;1.77;91.46;100428.06;5013566;28;20942;-42
2021/12/09 01:38:34;;;;;;;55.87;30.90;;;;;;;1.80;91.68;100422.53;5013315;28;20440;-42
2021/12/09 01:41:03;;;;;;;50.57;30.90;;;;;;;1.80;91.63;100419.91;5013430;28;20479;-43
2021/12/09 01:43:31;;;;;;;48.57;31.73;;;;;;;1.84;91.59;100410.75;5012846;28;20931;-41
2021/12/09 01:46:04;;;;;;;51.17;32.43;;;;;;;1.83;92.03;100411.72;5013360;28;20449;-42
2021/12/09 01:48:34;;;;;;;51.50;31.23;;;;;;;1.85;91.89;100409.78;5013689;28;20433;-43
2021/12/09 01:51:02;;;;;;;53.63;31.33;;;;;;;1.86;91.82;100417.50;5013374;28;20503;-43
2021/12/09 01:53:30;;;;;;;55.07;33.13;;;;;;;1.88;91.63;100420.00;5013053;28;20480;-42
2021/12/09 01:55:58;;;;;;;48.97;29.60;;;;;;;1.89;91.79;100422.47;5012957;28;20452;-42
2021/12/09 01:58:26;;;;;;;54.10;32.67;;;;;;;1.91;91.62;100424.97;5012985;28;20942;-42
2021/12/09 02:00:55;;;;;;;51.67;33.53;;;;;;;1.90;91.83;100437.28;5013331;28;20449;-43
2021/12/09 02:03:23;;;;;;;53.50;33.80;;;;;;;1.88;91.98;100423.44;5013089;28;20429;-43
2021/12/09 02:05:52;;;;;;;56.10;32.23;;;;;;;1.91;91.55;100423.13;5012577;28;20544;-42
2021/12/09 02:08:21;;;;;;;53.47;33.83;;;;;;;1.93;91.45;100423.84;5013027;28;20437;-43
2021/12/09 02:10:50;;;;;;;49.63;31.37;;;;;;;1.93;91.70;100425.63;5012820;28;20464;-42
2021/12/09 02:13:19;;;;;;;52.67;31.23;;;;;;;1.92;92.03;100427.44;5012521;28;20477;-42
2021/12/09 02:15:47;;;;;;;54.60;32.87;;;;;;;1.93;91.75;100428.25;5012721;28;20472;-43
2021/12/09 02:18:15;;;;;;;57.40;31.03;;;;;;;1.92;91.91;100443.22;5013061;28;20437;-42
2021/12/09 02:20:45;;;;;;;58.20;30.43;;;;;;;1.84;91.75;100440.50;5013127;28;20460;-41
2021/12/09 02:23:17;;;;;;;53.37;32.20;;;;;;;1.83;92.15;100432.75;5013291;28;20443;-42
2021/12/09 02:25:45;;;;;;;56.17;30.50;;;;;;;1.87;91.66;100442.00;5012736;28;20468;-41
2021/12/09 02:28:14;;;;;;;51.97;30.70;;;;;;;1.84;92.19;100437.88;5013312;28;20927;-42
2021/12/09 02:30:41;;;;;;;56.37;33.37;;;;;;;1.84;91.93;100445.75;5012968;28;20465;-45
2021/12/09 02:33:09;;;;;;;59.37;32.13;;;;;;;1.80;91.98;100443.56;5012807;28;20552;-42
2021/12/09 02:35:38;;;;;;;50.87;32.27;;;;;;;1.80;91.81;100441.75;5012212;28;20469;-43
2021/12/09 02:38:08;;;;;;;56.60;34.00;;;;;;;1.80;91.85;100436.50;5012438;28;20436;-44
2021/12/09 02:40:37;;;;;;;54.40;34.17;;;;;;;1.77;91.71;100441.22;5010652;23;21032;-44
2021/12/09 02:43:08;;;;;;;52.90;31.90;;;;;;;1.75;91.90;100440.56;4992025;28;20423;-45
2021/12/09 02:45:35;;;;;;;52.87;31.73;;;;;;;1.72;92.11;100432.97;4991681;28;20466;-47
2021/12/09 02:48:03;;;;;;;60.10;32.57;;;;;;;1.68;91.76;100428.00;4992004;28;20943;-45
2021/12/09 02:50:31;;;;;;;53.53;32.30;;;;;;;1.72;91.58;100427.69;4991836;28;20794;-45
2021/12/09 02:52:58;;;;;;;53.00;32.03;;;;;;;1.72;91.50;100433.78;4991930;28;20473;-45
2021/12/09 02:55:27;;;;;;;56.73;33.33;;;;;;;1.76;91.37;100434.31;4994652;28;20476;-44
2021/12/09 02:57:56;;;;;;;53.63;33.47;;;;;;;1.77;91.84;100435.97;4995663;28;20442;-45
2021/12/09 03:00:23;;;;;;;58.23;33.67;;;;;;;1.79;91.49;100429.59;4995499;28;20454;-45
2021/12/09 03:02:51;;;;;;;59.77;32.77;;;;;;;1.78;91.87;100430.56;4995543;28;20448;-44
2021/12/09 03:05:19;;;;;;;53.93;34.03;;;;;;;1.81;91.85;100426.81;4994992;28;20531;-45
2021/12/09 03:07:47;;;;;;;54.87;31.10;;;;;;;1.83;91.86;100416.97;4995612;28;20434;-45
2021/12/09 03:10:20;;;;;;;60.17;36.20;;;;;;;1.81;91.61;100422.38;4995479;28;20485;-45
2021/12/09 03:12:51;;;;;;;52.77;31.30;;;;;;;1.83;91.45;100430.94;4995201;28;20435;-44
2021/12/09 03:15:20;;;;;;;61.30;31.93;;;;;;;1.83;91.72;100427.47;4995189;28;20466;-45
2021/12/09 03:17:48;;;;;;;61.23;30.57;;;;;;;1.81;91.74;100430.28;4995198;28;20426;-44
2021/12/09 03:20:18;;;;;;;57.10;30.20;;;;;;;1.82;91.65;100433.75;4995389;28;20458;-45
2021/12/09 03:22:48;;;;;;;53.67;32.50;;;;;;;1.82;91.81;100433.75;4994857;28;20440;-44
2021/12/09 03:25:18;;;;;;;66.37;33.00;;;;;;;1.83;91.70;100444.09;4994785;28;20454;-45
2021/12/09 03:27:46;;;;;;;50.73;32.83;;;;;;;1.86;91.61;100441.16;5004027;28;20931;-43
2021/12/09 03:30:19;;;;;;;56.53;33.40;;;;;;;1.84;92.20;100439.66;5011296;28;20453;-45
2021/12/09 03:32:47;;;;;;;65.27;35.00;;;;;;;1.80;92.17;100438.28;5011681;28;20802;-45
2021/12/09 03:35:15;;;;;;;60.83;35.40;;;;;;;1.83;91.59;100443.25;5012511;28;20465;-44
2021/12/09 03:37:45;;;;;;;56.50;32.80;;;;;;;1.83;91.91;100438.00;5013238;28;20430;-45
2021/12/09 03:40:14;;;;;;;62.67;36.30;;;;;;;1.77;92.29;100438.59;5011078;28;20464;-43
2021/12/09 03:42:44;;;;;;;69.53;35.20;;;;;;;1.78;92.06;100443.72;5012809;28;20442;-45
2021/12/09 03:45:11;;;;;;;71.93;36.33;;;;;;;1.74;91.86;100437.09;5012685;28;20468;-43
2021/12/09 03:47:41;;;;;;;61.73;35.00;;;;;;;1.77;91.94;100434.16;5012572;28;20505;-45
2021/12/09 03:50:11;;;;;;;62.93;34.80;;;;;;;1.76;92.01;100427.28;5012763;28;20978;-46
2021/12/09 03:52:39;;;;;;;61.17;33.30;;;;;;;1.76;91.83;100431.69;5012710;28;20436;-44
2021/12/09 03:55:08;;;;;;;65.70;34.13;;;;;;;1.68;92.18;100435.88;5012295;28;20469;-44
2021/12/09 03:57:36;;;;;;;61.50;33.70;;;;;;;1.73;92.15;100439.88;5011359;28;20436;-44
2021/12/09 04:00:06;;;;;;;70.43;36.80;;;;;;;1.74;92.07;100444.97;5010977;28;20468;-46
2021/12/09 04:02:34;;;;;;;61.70;36.57;;;;;;;1.74;92.17;100442.34;5010710;28;20440;-45
2021/12/09 04:05:03;;;;;;;61.00;34.90;;;;;;;1.77;92.14;100444.69;5012924;28;21244;-45
2021/12/09 04:07:31;;;;;;;58.37;33.63;;;;;;;1.76;91.79;100445.69;5013576;28;20433;-45
2021/12/09 04:09:59;;;;;;;62.00;35.63;;;;;;;1.73;91.81;100450.41;5013905;28;21022;-44
2021/12/09 04:12:26;;;;;;;67.60;37.10;;;;;;;1.72;91.86;100461.88;5013895;28;20800;-44
2021/12/09 04:14:54;;;;;;;64.43;37.30;;;;;;;1.72;92.19;100454.81;5013378;28;20559;-45
2021/12/09 04:17:22;;;;;;;64.83;37.63;;;;;;;1.73;91.76;100464.38;5014058;28;20528;-46
2021/12/09 04:19:50;;;;;;;73.50;38.17;;;;;;;1.70;91.87;100458.56;5013636;28;20827;-45
2021/12/09 04:22:21;;;;;;;69.13;37.97;;;;;;;1.71;91.75;100461.03;5013564;28;20429;-47
2021/12/09 04:24:50;;;;;;;63.43;32.50;;;;;;;1.73;92.00;100453.84;5013244;28;20842;-45
2021/12/09 04:27:19;;;;;;;68.53;34.90;;;;;;;1.71;91.94;100462.84;5013682;28;20429;-42
2021/12/09 04:29:47;;;;;;;68.43;36.57;;;;;;;1.68;92.29;100470.06;5013535;28;20455;-46
2021/12/09 04:32:15;;;;;;;67.63;36.60;;;;;;;1.68;92.39;100469.22;5013470;28;20961;-47
2021/12/09 04:34:44;;;;;;;72.27;36.90;;;;;;;1.65;92.11;100470.34;5012615;28;20476;-49
2021/12/09 04:37:12;;;;;;;75.07;41.17;;;;;;;1.67;92.26;100472.84;5013567;28;20448;-43
2021/12/09 04:39:42;;;;;;;74.57;37.97;;;;;;;1.70;91.81;100476.97;5010021;28;20833;-43
2021/12/09 04:42:09;;;;;;;59.10;32.83;;;;;;;1.66;92.15;100476.44;5013309;28;20520;-48
2021/12/09 04:44:37;;;;;;;74.73;38.53;;;;;;;1.67;92.18;100480.72;5012753;28;20472;-47
2021/12/09 04:47:05;;;;;;;73.37;37.80;;;;;;;1.62;92.08;100481.16;5013066;28;20946;-43
2021/12/09 04:49:33;;;;;;;65.60;37.90;;;;;;;1.63;92.02;100484.59;5013271;28;20488;-46
2021/12/09 04:52:01;;;;;;;66.20;36.73;;;;;;;1.66;92.11;100482.53;5013311;28;20523;-47
2021/12/09 04:54:28;;;;;;;63.43;35.20;;;;;;;1.63;91.75;100474.09;5012325;28;21011;-43
2021/12/09 04:56:57;;;;;;;63.37;35.63;;;;;;;1.65;91.90;100472.13;5013075;28;20455;-47
2021/12/09 04:59:25;;;;;;;71.73;34.10;;;;;;;1.66;91.83;100472.00;5012938;28;20463;-45
2021/12/09 05:01:52;;;;;;;73.40;36.57;;;;;;;1.68;91.80;100482.38;5012797;28;20440;-45
2021/12/09 05:04:20;;;;;;;74.03;36.67;;;;;;;1.66;91.91;100484.31;5012411;28;20488;-46
2021/12/09 05:06:48;;;;;;;67.30;38.90;;;;;;;1.66;92.34;100485.16;5013035;28;20807;-44
2021/12/09 05:09:18;;;;;;;75.67;35.73;;;;;;;1.66;91.82;100485.16;5013021;28;20468;-45
2021/12/09 05:11:49;;;;;;;72.67;37.00;;;;;;;1.68;92.06;100477.94;5012779;28;20429;-47
2021/12/09 05:14:20;;;;;;;80.73;38.90;;;;;;;1.74;91.95;100480.94;5012001;28;20477;-47
2021/12/09 05:16:50;;;;;;;65.73;37.63;;;;;;;1.78;92.10;100471.81;5012536;28;20524;-46
2021/12/09 05:19:17;;;;;;;66.30;37.10;;;;;;;1.80;91.85;100475.94;5012494;28;21005;-44
2021/12/09 05:21:46;;;;;;;61.50;35.47;;;;;;;1.74;92.10;100475.69;5012670;28;20426;-44
2021/12/09 05:24:16;;;;;;;68.17;38.50;;;;;;;1.77;91.90;100478.84;5011825;28;20978;-47
2021/12/09 05:26:49;;;;;;;75.90;38.33;;;;;;;1.77;92.34;100476.22;5012437;28;20461;-43
2021/12/09 05:29:21;;;;;;;72.87;39.93;;;;;;;1.72;92.26;100454.81;5012444;28;20457;-44
2021/12/09 05:34:37;;;;;;;64.73;33.80;;;;;;;1.72;92.21;100452.19;5011806;28;20483;-44
2021/12/09 05:37:06;;;;;;;71.57;38.03;;;;;;;1.73;92.09;100461.75;5012233;28;20426;-44
2021/12/09 05:39:34;;;;;;;72.23;37.13;;;;;;;1.68;92.08;100470.06;5012259;28;20552;-45
2021/12/09 05:42:02;;;;;;;77.63;38.60;;;;;;;1.61;92.01;100479.47;5012431;28;20425;-44
2021/12/09 05:44:31;;;;;;;77.40;39.17;;;;;;;1.58;92.36;100471.88;5011705;28;20479;-42
2021/12/09 05:46:59;;;;;;;68.17;37.80;;;;;;;1.51;92.28;100472.63;5011878;28;20433;-43
2021/12/09 05:49:27;;;;;;;77.70;39.80;;;;;;;1.50;91.68;100463.91;5011869;28;20457;-47
2021/12/09 05:51:55;;;;;;;71.63;38.60;;;;;;;1.49;91.99;100461.44;5012031;28;20456;-45
2021/12/09 05:54:22;;;;;;;72.60;38.23;;;;;;;1.46;92.22;100459.94;5011515;28;20464;-44
2021/12/09 05:56:50;;;;;;;72.43;38.40;;;;;;;1.47;92.16;100451.06;5012372;28;20433;-46
2021/12/09 05:59:18;;;;;;;77.13;38.30;;;;;;;1.50;92.27;100466.53;5012215;28;20460;-43
2021/12/09 06:01:47;;;;;;;75.83;39.80;;;;;;;1.48;92.23;100455.34;5011565;28;20444;-45
2021/12/09 06:04:15;;;;;;;79.33;40.40;;;;;;;1.50;91.82;100456.03;5010352;28;20472;-44
2021/12/09 06:06:43;;;;;;;76.43;38.40;;;;;;;1.46;91.89;100467.81;5011598;28;20433;-48
2021/12/09 06:09:12;;;;;;;84.87;39.17;;;;;;;1.47;92.21;100473.88;5011499;28;20445;-46
2021/12/09 06:11:40;;;;;;;71.23;37.63;;;;;;;1.50;91.59;100470.97;5011545;28;20441;-45
2021/12/09 06:14:09;;;;;;;82.90;39.87;;;;;;;1.51;91.92;100476.09;5011177;28;20483;-46
2021/12/09 06:16:37;;;;;;;75.73;41.03;;;;;;;1.49;92.26;100485.09;5011679;28;20480;-45
2021/12/09 06:19:06;;;;;;;79.30;38.17;;;;;;;1.48;92.33;100483.44;5011037;28;20457;-47
2021/12/09 06:21:34;;;;;;;77.00;37.80;;;;;;;1.47;91.65;100479.13;5011756;28;20447;-47
2021/12/09 06:24:02;;;;;;;80.07;36.90;;;;;;;1.47;92.15;100481.75;5011158;28;20452;-45
2021/12/09 06:26:31;;;;;;;80.03;39.50;;;;;;;1.49;91.98;100492.97;5011645;28;20429;-45
2021/12/09 06:29:00;;;;;;;73.13;38.90;;;;;;;1.51;91.90;100494.47;5012337;28;21043;-45
2021/12/09 06:31:28;;;;;;;70.30;35.70;;;;;;;1.50;91.80;100486.72;5015451;28;20436;-45
2021/12/09 06:33:56;;;;;;;63.30;36.30;;;;;;;1.54;91.87;100496.00;5014759;28;20502;-44
2021/12/09 06:36:25;;;;;;;81.47;37.77;;;;;;;1.53;92.23;100503.03;5015261;28;20480;-45
2021/12/09 06:38:52;;;;;;;69.07;37.13;;;;;;;1.57;92.23;100509.69;5008901;28;20461;-43
2021/12/09 06:41:21;;;;;;;69.23;38.23;;;;;;;1.56;92.33;100513.25;5013926;28;20448;-44
2021/12/09 06:43:49;;;;;;;77.77;39.47;;;;;;;1.55;92.21;100503.72;5014732;28;20436;-45
2021/12/09 06:46:17;;;;;;;69.97;39.83;;;;;;;1.56;91.90;100509.81;5015701;28;20538;-46
2021/12/09 06:48:50;;;;;;;69.50;38.97;;;;;;;1.48;92.35;100507.06;5015505;28;20428;-46
2021/12/09 06:51:18;;;;;;;84.03;37.90;;;;;;;1.48;92.02;100509.69;5015350;28;20429;-45
2021/12/09 06:53:47;;;;;;;66.97;37.87;;;;;;;1.50;92.34;100505.94;5014473;28;20966;-45
2021/12/09 06:56:15;;;;;;;75.90;39.47;;;;;;;1.50;92.16;100518.25;5015221;28;20479;-44
2021/12/09 06:58:43;;;;;;;64.60;37.10;;;;;;;1.44;92.34;100521.47;5015059;28;20459;-45
2021/12/09 07:01:10;;;;;;;73.53;37.90;;;;;;;1.44;91.93;100517.03;5015292;28;20456;-44
2021/12/09 07:03:39;;;;;;;64.70;36.37;;;;;;;1.43;92.43;100522.47;5014592;28;20437;-47
2021/12/09 07:06:08;;;;;;;72.43;40.30;;;;;;;1.39;92.13;100524.53;5015269;28;20429;-44
2021/12/09 07:08:44;;;;;;;67.60;37.30;;;;;;;1.38;92.22;100530.75;5014981;28;20429;-43
2021/12/09 07:11:13;;;;;;;70.87;36.17;;;;;;;1.33;92.29;100538.25;5014954;28;20437;-47
2021/12/09 07:13:42;;;;;;;77.77;38.60;;;;;;;1.33;91.98;100540.03;5014446;28;20439;-47
2021/12/09 07:16:10;;;;;;;78.83;38.80;;;;;;;1.32;91.86;100527.84;5015033;28;20472;-44
2021/12/09 07:18:38;;;;;;;75.77;38.70;;;;;;;1.33;92.03;100525.09;5014896;28;20483;-44
2021/12/09 07:21:08;;;;;;;72.40;40.57;;;;;;;1.32;91.88;100541.81;5014825;28;20433;-44
2021/12/09 07:23:35;;;;;;;71.63;38.20;;;;;;;1.37;91.97;100533.53;5013997;28;20433;-45
2021/12/09 07:26:03;;;;;;;69.60;37.67;;;;;;;1.35;92.09;100517.91;5014918;28;20425;-45
2021/12/09 07:28:32;;;;;;;72.10;36.43;;;;;;;1.38;92.10;100524.66;5014791;28;20530;-44
2021/12/09 07:31:01;;;;;;;66.57;37.30;;;;;;;1.38;91.90;100530.75;5014910;28;20947;-44
2021/12/09 07:33:28;;;;;;;72.60;40.87;;;;;;;1.40;92.18;100530.63;5014586;28;20789;-45
2021/12/09 07:35:56;;;;;;;67.13;38.40;;;;;;;1.45;92.19;100533.63;5014045;28;20843;-44
2021/12/09 07:38:24;;;;;;;77.80;39.23;;;;;;;1.50;91.92;100540.13;5012322;28;20493;-45
2021/12/09 07:40:51;;;;;;;75.40;39.77;;;;;;;1.52;91.83;100542.63;5007537;28;20467;-47
2021/12/09 07:43:19;;;;;;;68.77;36.13;;;;;;;1.53;92.39;100525.84;5014186;28;20439;-44
2021/12/09 07:45:48;;;;;;;77.07;40.17;;;;;;;1.50;92.28;100511.22;5013923;28;20802;-43
2021/12/09 07:48:16;;;;;;;78.93;40.43;;;;;;;1.47;92.31;100515.91;5014318;28;20440;-44
2021/12/09 07:50:43;;;;;;;73.87;39.87;;;;;;;1.47;92.18;100527.25;5014144;28;20458;-43
2021/12/09 07:53:11;;;;;;;72.60;37.97;;;;;;;1.48;91.94;100531.56;5013895;28;20437;-44
2021/12/09 07:55:39;;;;;;;67.23;39.43;;;;;;;1.50;91.92;100536.66;5013683;28;20469;-45
2021/12/09 07:58:06;;;;;;;65.10;36.17;;;;;;;1.49;91.89;100530.56;5014171;28;20437;-43
2021/12/09 08:00:35;;;;;;;69.10;38.00;;;;;;;1.54;92.23;100535.41;5014131;28;20449;-45
2021/12/09 08:03:04;;;;;;;72.03;38.57;;;;;;;1.54;92.15;100538.88;5013681;28;20433;-43
2021/12/09 08:05:34;;;;;;;67.70;37.57;;;;;;;1.53;92.19;100536.38;5013612;28;20472;-48
2021/12/09 08:08:02;;;;;;;77.30;40.67;;;;;;;1.53;92.23;100537.19;5014081;28;20509;-42
2021/12/09 08:10:30;;;;;;;68.90;41.10;;;;;;;1.45;92.17;100542.34;5014022;28;20464;-43
2021/12/09 08:12:58;;;;;;;66.93;38.57;;;;;;;1.50;92.23;100541.91;5013457;28;20931;-43
2021/12/09 08:15:28;;;;;;;82.77;40.40;;;;;;;1.50;92.19;100540.13;5013207;28;20465;-42
2021/12/09 08:18:02;;;;;;;80.83;42.30;;;;;;;1.56;92.16;100551.84;5013981;28;20469;-42
2021/12/09 08:20:33;;;;;;;79.53;40.30;;;;;;;1.60;92.07;100555.84;5013669;28;20461;-44
2021/12/09 08:23:01;;;;;;;74.17;39.27;;;;;;;1.57;92.30;100564.88;5013568;28;20433;-43
2021/12/09 08:25:28;;;;;;;75.97;39.53;;;;;;;1.60;92.42;100555.84;5013240;28;20465;-43
2021/12/09 08:27:56;;;;;;;81.93;41.73;;;;;;;1.57;91.91;100558.78;5013767;28;20428;-47
2021/12/09 08:30:26;;;;;;;74.83;39.00;;;;;;;1.58;92.32;100561.25;5013438;28;20453;-45
2021/12/09 08:33:13;;;;;;;81.87;40.80;;;;;;;1.56;91.86;100563.19;5013503;28;20440;-43
2021/12/09 08:35:42;;;;;;;72.50;41.23;;;;;;;1.63;91.96;100566.09;5012937;28;20465;-43
2021/12/09 08:38:10;;;;;;;74.83;38.83;;;;;;;1.72;92.38;100574.91;5012852;28;20444;-43
2021/12/09 08:40:39;;;;;;;71.00;39.37;;;;;;;1.77;91.78;100575.28;4998156;28;20463;-44
2021/12/09 08:43:06;;;;;;;70.10;39.03;;;;;;;1.77;91.96;100575.28;5013016;28;20436;-44
2021/12/09 08:45:34;;;;;;;71.43;38.03;;;;;;;1.77;92.03;100575.28;5013010;28;20475;-46
2021/12/09 08:48:01;;;;;;;76.43;40.10;;;;;;;1.75;91.49;100575.44;5013326;28;20865;-45
2021/12/09 08:50:33;;;;;;;79.67;38.37;;;;;;;1.75;91.60;100574.63;5013191;28;20457;-46
2021/12/09 08:53:08;;;;;;;68.33;37.80;;;;;;;1.75;91.68;100574.63;5012498;28;20803;-45
2021/12/09 08:55:37;;;;;;;66.63;35.90;;;;;;;1.76;91.64;100574.50;5012757;28;20913;-44
2021/12/09 08:58:05;;;;;;;74.03;43.10;;;;;;;1.73;91.60;100566.91;5013264;28;20838;-46
2021/12/09 09:00:33;;;;;;;74.33;40.27;;;;;;;1.75;91.88;100556.22;5013111;28;20453;-46
2021/12/09 09:03:03;;;;;;;65.27;38.00;;;;;;;1.71;91.56;100560.94;5013031;28;20799;-42
2021/12/09 09:05:33;;;;;;;64.03;37.50;;;;;;;1.72;91.48;100559.13;5012384;28;20886;-44
2021/12/09 09:08:03;;;;;;;72.57;37.97;;;;;;;1.79;91.84;100549.72;5013057;28;20425;-47
2021/12/09 09:10:33;;;;;;;73.30;39.90;;;;;;;1.80;92.05;100549.53;5012920;28;20471;-43
2021/12/09 09:13:01;;;;;;;80.27;41.70;;;;;;;1.82;91.64;100558.13;5012638;28;20436;-44
2021/12/09 09:15:31;;;;;;;70.17;38.37;;;;;;;1.84;91.63;100543.03;5012580;28;20515;-43
2021/12/09 09:17:59;;;;;;;73.27;41.73;;;;;;;1.83;91.38;100548.44;5012600;28;20868;-46
2021/12/09 09:20:30;;;;;;;68.60;38.83;;;;;;;1.80;91.81;100548.72;5012845;28;20453;-44
2021/12/09 09:22:58;;;;;;;74.60;40.53;;;;;;;1.83;91.80;100545.78;5012593;28;20429;-44
2021/12/09 09:25:29;;;;;;;72.10;38.43;;;;;;;1.84;91.79;100542.22;5012063;28;20543;-48
2021/12/09 09:27:57;;;;;;;81.67;40.30;;;;;;;1.81;91.54;100545.97;5012652;28;20536;-44
2021/12/09 09:30:34;;;;;;;72.27;40.73;;;;;;;1.84;91.47;100550.09;5012594;28;20458;-46
2021/12/09 09:33:03;;;;;;;67.07;39.80;;;;;;;1.79;91.36;100540.03;5012720;28;20429;-47
2021/12/09 09:35:31;;;;;;;75.70;40.40;;;;;;;1.81;91.14;100542.50;5012111;28;20468;-44
2021/12/09 09:37:59;;;;;;;72.87;40.30;;;;;;;1.83;91.36;100543.16;5010296;28;20476;-44
2021/12/09 09:40:38;;;;;;;71.03;41.77;;;;;;;1.89;91.52;100539.97;5011485;28;20453;-43
2021/12/09 09:43:15;;;;;;;68.80;38.80;;;;;;;1.87;91.42;100534.03;5011944;28;20424;-44
2021/12/09 09:45:43;;;;;;;70.30;38.60;;;;;;;1.79;91.06;100541.81;5011912;28;20551;-44
2021/12/09 09:48:13;;;;;;;66.50;36.93;;;;;;;1.79;90.83;100544.44;5012185;28;20433;-44
2021/12/09 09:50:41;;;;;;;80.57;39.70;;;;;;;1.82;91.16;100544.16;5012357;28;20453;-46
2021/12/09 09:53:09;;;;;;;62.17;35.97;;;;;;;1.85;91.03;100543.88;5011916;28;20435;-44
2021/12/09 09:55:41;;;;;;;71.60;38.17;;;;;;;1.77;90.67;100539.31;5011799;28;20465;-42
2021/12/09 09:58:09;;;;;;;66.40;38.23;;;;;;;1.82;90.68;100536.28;5012267;28;20477;-44
2021/12/09 10:00:37;;;;;;;67.13;36.87;;;;;;;1.87;90.96;100540.13;5012215;28;20465;-45
2021/12/09 10:03:10;;;;;;;59.00;35.90;;;;;;;1.90;90.82;100533.72;5011528;28;20445;-42
2021/12/09 10:05:43;;;;;;;70.10;36.23;;;;;;;1.89;90.38;100534.69;5011350;28;20990;-43
2021/12/09 10:08:12;;;;;;;61.27;37.00;;;;;;;1.89;90.88;100525.00;5011990;28;20453;-46
2021/12/09 10:10:42;;;;;;;66.90;36.87;;;;;;;1.93;90.60;100520.28;5012088;28;20464;-45
2021/12/09 10:13:13;;;;;;;65.57;36.83;;;;;;;1.94;90.77;100514.88;5011844;28;20803;-46
2021/12/09 10:15:44;;;;;;;61.73;36.47;;;;;;;1.94;90.34;100512.25;5011492;28;20467;-45
2021/12/09 10:18:13;;;;;;;73.57;38.73;;;;;;;1.99;90.37;100519.72;5011948;28;20477;-48
2021/12/09 10:20:54;;;;;;;73.43;39.90;;;;;;;1.97;89.98;100524.28;5011739;28;21020;-47
2021/12/09 10:23:28;;;;;;;63.60;36.80;;;;;;;1.99;90.22;100517.09;5011805;28;20795;-46
2021/12/09 10:26:28;;;;;;;70.10;41.27;;;;;;;2.00;90.16;100522.19;5011529;28;20471;-43
2021/12/09 10:29:05;;;;;;;70.40;38.77;;;;;;;1.95;89.55;100516.53;4970304;28;20451;-46
2021/12/09 10:31:36;;;;;;;77.90;41.47;;;;;;;1.96;90.15;100512.94;5005910;28;20777;-44
2021/12/09 10:34:12;;;;;;;62.87;36.73;;;;;;;1.95;90.06;100513.91;5011360;28;20461;-46
2021/12/09 10:37:01;;;;;;;68.67;40.30;;;;;;;1.99;89.97;100503.94;5011829;28;20432;-45
2021/12/09 10:39:33;;;;;;;71.50;38.73;;;;;;;2.01;90.24;100499.34;5003215;28;20800;-44
2021/12/09 10:42:06;;;;;;;71.57;41.20;;;;;;;2.02;89.95;100498.38;5011941;28;20877;-42
2021/12/09 10:44:37;;;;;;;74.13;39.17;;;;;;;2.04;89.71;100506.94;5011079;28;20463;-44
2021/12/09 10:47:10;;;;;;;64.37;37.63;;;;;;;2.00;89.49;100514.28;5011701;28;20425;-44
2021/12/09 10:49:47;;;;;;;67.50;36.70;;;;;;;2.07;89.80;100506.66;5011473;28;20460;-44
2021/12/09 10:52:24;;;;;;;59.97;36.67;;;;;;;2.07;89.91;100506.66;5011796;28;20435;-45
2021/12/09 10:54:52;;;;;;;65.37;37.43;;;;;;;2.13;90.16;100503.41;5011349;28;20468;-43
2021/12/09 10:57:30;;;;;;;63.53;37.67;;;;;;;2.15;89.91;100502.28;5011580;28;20475;-44
2021/12/09 11:00:13;;;;;;;73.30;37.17;;;;;;;2.18;89.88;100499.38;5011557;28;20535;-45
2021/12/09 11:02:58;;;;;;;59.33;34.37;;;;;;;2.19;89.55;100498.41;5011525;28;20773;-43
2021/12/09 11:05:25;;;;;;;63.50;37.43;;;;;;;2.20;89.39;100494.81;5011185;28;20449;-44
2021/12/09 11:07:53;;;;;;;61.77;37.00;;;;;;;2.25;89.08;100494.34;5011494;28;20429;-43
2021/12/09 11:10:24;;;;;;;61.23;35.60;;;;;;;2.28;89.08;100487.94;5011406;28;20446;-44
2021/12/09 11:12:56;;;;;;;61.27;36.83;;;;;;;2.33;89.18;100481.25;5011266;28;20430;-44
2021/12/09 11:15:48;;;;;;;69.97;39.23;;;;;;;2.39;88.64;100479.84;5012873;28;20465;-44
2021/12/09 11:18:33;;;;;;;69.97;38.83;;;;;;;2.52;89.38;100475.84;5014907;28;20472;-45
2021/12/09 11:21:04;;;;;;;61.07;37.50;;;;;;;2.59;88.43;100479.53;5014745;28;20441;-44
2021/12/09 11:23:36;;;;;;;70.87;40.30;;;;;;;2.68;88.63;100483.91;5014730;28;20429;-42
2021/12/09 11:26:30;;;;;;;65.17;36.87;;;;;;;2.64;87.80;100492.25;5014745;28;20528;-43
2021/12/09 11:29:04;;;;;;;67.57;37.40;;;;;;;2.71;87.91;100488.03;5014887;28;20453;-45
2021/12/09 11:31:35;;;;;;;74.27;40.93;;;;;;;2.71;87.81;100486.22;5014636;28;20431;-43